createdAt,value
2022-12-31T00:01:07.187Z,123.15
2022-12-31T00:03:57.206Z,127.60
2022-12-31T00:06:39.421Z,129.52
2022-12-31T00:09:28.141Z,121.57
2022-12-31T00:12:10.284Z,126.43
2022-12-31T00:14:59.265Z,132.90
2022-12-31T00:17:49.465Z,126.13
2022-12-31T00:20:38.255Z,123.50
2022-12-31T00:23:20.400Z,127.25
2022-12-31T00:26:13.206Z,125.57
2022-12-31T00:28:56.470Z,128.20
2022-12-31T00:31:46.184Z,132.50
2022-12-31T00:34:28.475Z,120.43
2022-12-31T00:37:17.102Z,127.97
2022-12-31T00:39:59.468Z,123.90
2022-12-31T00:42:48.190Z,121.63
2022-12-31T00:45:30.512Z,121.03
2022-12-31T00:48:22.467Z,118.28
2022-12-31T00:51:05.460Z,128.30
2022-12-31T00:53:54.193Z,133.63
2022-12-31T00:56:38.453Z,131.38
2022-12-31T00:59:27.204Z,122.30
2022-12-31T01:02:09.583Z,125.20
2022-12-31T01:04:58.157Z,125.55
2022-12-31T01:07:40.414Z,118.40
2022-12-31T01:10:49.182Z,122.35
2022-12-31T01:13:31.507Z,113.53
2022-12-31T01:16:22.218Z,123.97
2022-12-31T01:19:20.995Z,130.50
2022-12-31T01:22:10.179Z,127.97
2022-12-31T01:24:59.196Z,125.22
2022-12-31T01:27:47.394Z,127.03
2022-12-31T01:30:29.111Z,129.35
2022-12-31T01:33:18.104Z,136.50
2022-12-31T01:36:07.235Z,122.28
2022-12-31T01:38:56.404Z,128.18
2022-12-31T01:41:42.028Z,123.60
2022-12-31T01:44:34.171Z,128.95
2022-12-31T01:47:32.437Z,138.02
2022-12-31T01:50:36.413Z,129.13
2022-12-31T01:56:08.448Z,134.13
2022-12-31T01:58:56.092Z,136.65
2022-12-31T02:01:39.737Z,140.63
2022-12-31T02:04:30.175Z,133.13
2022-12-31T02:07:20.445Z,127.30
2022-12-31T02:10:03.186Z,127.35
2022-12-31T02:12:45.412Z,128.90
2022-12-31T02:15:43.145Z,125.80
2022-12-31T02:18:37.115Z,130.82
2022-12-31T02:22:12.041Z,129.38
2022-12-31T02:25:50.151Z,129.18
2022-12-31T02:28:38.375Z,124.18
2022-12-31T02:31:36.132Z,125.82
2022-12-31T02:34:44.001Z,120.60
2022-12-31T02:37:35.211Z,122.10
2022-12-31T02:40:22.433Z,124.15
2022-12-31T02:43:11.180Z,125.65
2022-12-31T02:45:58.437Z,136.52
2022-12-31T02:48:53.167Z,130.18
2022-12-31T02:52:02.441Z,130.93
2022-12-31T02:54:56.993Z,115.70
2022-12-31T02:57:50.442Z,125.22
2022-12-31T03:01:01.151Z,130.88
2022-12-31T03:03:45.487Z,133.20
2022-12-31T03:06:34.050Z,132.32
2022-12-31T03:09:16.452Z,133.05
2022-12-31T03:12:24.185Z,136.30
2022-12-31T03:15:07.731Z,141.30
2022-12-31T03:17:57.122Z,135.25
2022-12-31T03:21:08.783Z,137.98
2022-12-31T03:24:11.078Z,131.40
2022-12-31T03:26:53.264Z,135.35
2022-12-31T03:29:42.013Z,137.88
2022-12-31T03:32:30.431Z,134.45
2022-12-31T03:35:13.161Z,121.75
2022-12-31T03:37:55.811Z,116.68
2022-12-31T03:40:42.053Z,126.60
2022-12-31T03:43:25.396Z,112.57
2022-12-31T03:46:14.542Z,105.45
2022-12-31T03:48:56.480Z,105.57
2022-12-31T03:51:45.064Z,104.22
2022-12-31T03:54:34.111Z,105.05
2022-12-31T03:57:23.473Z,115.78
2022-12-31T04:00:06.209Z,115.80
2022-12-31T04:02:49.909Z,106.35
2022-12-31T04:05:40.200Z,106.72
2022-12-31T04:08:30.466Z,104.43
2022-12-31T04:11:14.756Z,101.65
2022-12-31T04:14:14.162Z,93.72
2022-12-31T04:17:03.448Z,92.78
2022-12-31T04:19:58.163Z,86.00
2022-12-31T04:22:47.040Z,90.40
2022-12-31T04:25:29.528Z,91.82
2022-12-31T04:28:18.201Z,96.13
2022-12-31T04:31:00.358Z,88.95
2022-12-31T04:33:49.497Z,91.82
2022-12-31T04:36:31.399Z,97.03
2022-12-31T04:39:20.164Z,83.25
2022-12-31T04:42:02.400Z,92.88
2022-12-31T04:44:51.054Z,96.80
2022-12-31T04:47:33.504Z,88.45
2022-12-31T04:50:22.070Z,88.50
2022-12-31T04:53:04.444Z,92.28
2022-12-31T04:55:54.105Z,90.07
2022-12-31T04:58:37.167Z,87.78
2022-12-31T05:01:26.182Z,90.27
2022-12-31T05:04:08.644Z,85.95
2022-12-31T05:06:57.049Z,98.57
2022-12-31T05:09:46.041Z,90.38
2022-12-31T05:12:28.450Z,94.55
2022-12-31T05:15:16.995Z,85.95
2022-12-31T05:18:05.517Z,88.55
2022-12-31T05:20:55.194Z,85.43
2022-12-31T05:23:37.504Z,84.95
2022-12-31T05:26:26.228Z,75.22
2022-12-31T05:29:08.401Z,67.55
2022-12-31T05:31:57.042Z,71.38
2022-12-31T05:34:46.043Z,73.95
2022-12-31T05:37:37.366Z,80.53
2022-12-31T05:40:20.111Z,77.75
2022-12-31T05:43:08.460Z,64.93
2022-12-31T05:45:50.213Z,71.57
2022-12-31T05:48:33.144Z,63.05
2022-12-31T05:51:22.144Z,67.20
2022-12-31T05:54:10.422Z,68.53
2022-12-31T05:56:52.496Z,58.22
2022-12-31T05:59:35.034Z,58.92
2022-12-31T06:02:24.024Z,52.80
2022-12-31T06:05:06.682Z,51.25
2022-12-31T06:07:55.177Z,58.97
2022-12-31T06:10:44.476Z,56.25
2022-12-31T06:13:26.065Z,66.13
2022-12-31T06:16:10.073Z,53.13
2022-12-31T06:19:01.164Z,52.25
2022-12-31T06:21:56.063Z,57.63
2022-12-31T06:24:46.081Z,54.58
2022-12-31T06:27:35.068Z,49.00
2022-12-31T06:30:24.456Z,53.53
2022-12-31T06:33:07.037Z,45.70
2022-12-31T06:35:55.460Z,54.50
2022-12-31T06:38:40.184Z,56.60
2022-12-31T06:41:29.417Z,64.63
2022-12-31T06:44:11.198Z,65.68
2022-12-31T06:46:59.513Z,59.22
2022-12-31T06:49:42.020Z,69.65
2022-12-31T06:52:31.543Z,67.37
2022-12-31T06:55:14.061Z,52.90
2022-12-31T06:58:03.371Z,62.38
2022-12-31T07:00:47.103Z,63.90
2022-12-31T07:03:44.237Z,64.82
2022-12-31T07:06:54.010Z,62.53
2022-12-31T07:10:02.193Z,68.13
2022-12-31T07:13:24.049Z,71.57
2022-12-31T07:16:26.176Z,68.80
2022-12-31T07:19:33.158Z,68.90
2022-12-31T07:22:24.453Z,76.75
2022-12-31T07:25:07.250Z,78.45
2022-12-31T07:27:58.355Z,76.30
2022-12-31T07:30:43.148Z,66.68
2022-12-31T07:33:59.166Z,70.00
2022-12-31T07:37:01.581Z,71.20
2022-12-31T07:40:08.141Z,80.28
2022-12-31T07:42:58.500Z,73.10
2022-12-31T07:45:54.146Z,69.30
2022-12-31T07:48:37.405Z,78.13
2022-12-31T07:51:26.210Z,80.50
2022-12-31T07:54:13.682Z,79.95
2022-12-31T07:57:03.036Z,70.00
2022-12-31T07:59:51.559Z,64.43
2022-12-31T08:03:08.071Z,67.30
2022-12-31T08:06:17.562Z,69.80
2022-12-31T08:09:16.080Z,65.95
2022-12-31T08:12:06.052Z,73.50
2022-12-31T08:14:56.113Z,66.00
2022-12-31T08:17:38.384Z,64.32
2022-12-31T08:20:29.046Z,69.53
2022-12-31T08:23:36.425Z,61.95
2022-12-31T08:26:53.219Z,72.82
2022-12-31T08:30:08.391Z,75.43
2022-12-31T08:33:06.016Z,68.53
2022-12-31T08:36:08.388Z,64.30
2022-12-31T08:39:25.118Z,68.22
2022-12-31T08:42:10.459Z,43.60
2022-12-31T08:45:13.966Z,48.75
2022-12-31T08:48:12.403Z,38.35
2022-12-31T08:51:02.041Z,35.63
2022-12-31T08:53:45.385Z,32.67
2022-12-31T08:56:45.971Z,28.65
2022-12-31T09:00:00.151Z,22.05
2022-12-31T09:03:03.441Z,35.03
2022-12-31T09:06:05.130Z,21.38
2022-12-31T09:09:04.129Z,16.42
2022-12-31T09:12:11.113Z,18.90
2022-12-31T09:15:08.570Z,19.75
2022-12-31T09:18:02.083Z,21.38
2022-12-31T09:20:51.432Z,23.83
2022-12-31T09:23:34.145Z,15.98
2022-12-31T09:26:45.689Z,19.50
2022-12-31T09:30:05.243Z,17.42
2022-12-31T09:33:26.516Z,14.98
2022-12-31T09:36:23.093Z,14.13
2022-12-31T09:39:26.340Z,12.60
2022-12-31T09:42:34.154Z,11.25
2022-12-31T09:46:07.438Z,17.95
2022-12-31T09:48:59.095Z,16.33
2022-12-31T09:52:00.169Z,18.92
2022-12-31T09:54:53.523Z,16.48
2022-12-31T09:57:58.127Z,21.83
2022-12-31T10:01:10.506Z,16.20
2022-12-31T10:04:11.993Z,17.77
2022-12-31T10:07:30.124Z,15.43
2022-12-31T10:10:24.983Z,16.67
2022-12-31T10:13:28.478Z,19.85
2022-12-31T10:16:53.215Z,13.27
2022-12-31T10:20:22.079Z,16.88
2022-12-31T10:23:35.027Z,14.40
2022-12-31T10:26:54.601Z,16.30
2022-12-31T10:29:55.120Z,17.67
2022-12-31T10:33:04.427Z,13.70
2022-12-31T10:36:02.025Z,17.23
2022-12-31T10:39:39.028Z,17.20
2022-12-31T10:42:24.594Z,14.68
2022-12-31T10:45:49.113Z,12.20
2022-12-31T10:49:02.484Z,29.20
2022-12-31T10:52:41.530Z,28.27
2022-12-31T10:55:48.047Z,23.13
2022-12-31T10:58:57.463Z,34.80
2022-12-31T11:01:43.316Z,25.30
2022-12-31T11:05:01.467Z,28.83
2022-12-31T11:08:10.046Z,30.77
2022-12-31T11:11:01.484Z,35.10
2022-12-31T11:14:31.176Z,26.73
2022-12-31T11:17:31.460Z,23.65
2022-12-31T11:21:00.041Z,28.70
2022-12-31T11:24:31.095Z,19.65
2022-12-31T11:27:49.539Z,19.52
2022-12-31T11:30:49.031Z,20.77
2022-12-31T11:34:07.026Z,23.13
2022-12-31T11:37:07.316Z,23.45
2022-12-31T11:40:14.260Z,30.65
2022-12-31T11:43:08.459Z,38.13
2022-12-31T11:46:18.163Z,48.78
2022-12-31T11:49:21.685Z,51.72
2022-12-31T11:52:21.368Z,44.28
2022-12-31T11:55:38.405Z,42.22
2022-12-31T11:58:35.991Z,45.72
2022-12-31T12:01:28.338Z,47.03
2022-12-31T12:04:19.171Z,43.72
2022-12-31T12:07:01.484Z,45.85
2022-12-31T12:09:51.992Z,41.97
2022-12-31T12:12:34.456Z,39.53
2022-12-31T12:15:34.211Z,45.63
2022-12-31T12:18:45.329Z,44.33
2022-12-31T12:21:40.999Z,38.35
2022-12-31T12:24:38.036Z,38.65
2022-12-31T12:27:32.331Z,36.30
2022-12-31T12:33:13.314Z,33.90
2022-12-31T12:36:02.149Z,33.47
2022-12-31T12:38:45.427Z,37.67
2022-12-31T12:41:35.124Z,39.88
2022-12-31T12:44:23.357Z,41.92
2022-12-31T12:47:16.189Z,47.63
2022-12-31T12:50:02.401Z,55.43
2022-12-31T12:53:12.037Z,42.70
2022-12-31T12:56:18.419Z,42.42
2022-12-31T12:59:43.971Z,40.85
2022-12-31T13:02:32.499Z,31.25
2022-12-31T13:05:38.065Z,40.08
2022-12-31T13:08:34.507Z,42.40
2022-12-31T13:11:38.074Z,40.13
2022-12-31T13:14:37.525Z,42.40
2022-12-31T13:17:41.056Z,46.53
2022-12-31T13:20:46.407Z,49.42
2022-12-31T13:23:55.034Z,45.15
2022-12-31T13:27:03.600Z,43.55
2022-12-31T13:29:56.110Z,59.42
2022-12-31T13:32:51.518Z,51.03
2022-12-31T13:36:11.034Z,58.47
2022-12-31T13:39:02.059Z,60.05
2022-12-31T13:42:11.327Z,59.10
2022-12-31T13:45:07.061Z,69.85
2022-12-31T13:48:06.581Z,69.95
2022-12-31T13:51:02.045Z,62.35
2022-12-31T13:54:15.091Z,89.35
2022-12-31T13:57:07.138Z,92.85
2022-12-31T13:59:56.144Z,92.07
2022-12-31T14:03:07.127Z,95.43
2022-12-31T14:06:07.419Z,74.63
2022-12-31T14:08:49.124Z,76.07
2022-12-31T14:11:57.389Z,73.75
2022-12-31T14:15:05.993Z,77.85
2022-12-31T14:17:57.337Z,69.93
2022-12-31T14:21:00.975Z,66.63
2022-12-31T14:24:25.297Z,85.00
2022-12-31T14:27:12.005Z,79.15
2022-12-31T14:30:08.388Z,91.05
2022-12-31T14:32:53.054Z,136.63
2022-12-31T14:36:02.826Z,195.43
2022-12-31T14:39:03.449Z,207.57
2022-12-31T14:42:10.057Z,168.50
2022-12-31T14:45:08.999Z,187.07
2022-12-31T14:48:31.985Z,186.95
2022-12-31T14:51:15.312Z,206.95
2022-12-31T14:54:05.985Z,178.93
2022-12-31T14:56:49.376Z,148.95
2022-12-31T14:59:40.853Z,157.18
2022-12-31T15:02:42.507Z,165.30
2022-12-31T15:05:40.175Z,148.23
2022-12-31T15:08:51.407Z,143.70
2022-12-31T15:11:46.140Z,135.10
2022-12-31T15:14:46.423Z,125.68
2022-12-31T15:17:56.025Z,111.70
2022-12-31T15:21:26.906Z,101.00
2022-12-31T15:24:28.004Z,120.68
2022-12-31T15:27:14.287Z,131.55
2022-12-31T15:30:03.042Z,125.97
2022-12-31T15:32:51.284Z,140.90
2022-12-31T15:35:51.960Z,148.73
2022-12-31T15:38:45.409Z,156.48
2022-12-31T15:42:10.285Z,154.25
2022-12-31T15:45:14.830Z,142.88
2022-12-31T15:48:08.038Z,145.82
2022-12-31T15:50:52.323Z,127.72
2022-12-31T15:54:00.145Z,132.50
2022-12-31T15:56:53.524Z,134.65
2022-12-31T15:59:41.993Z,145.18
2022-12-31T16:02:39.052Z,132.63
2022-12-31T16:05:35.068Z,138.98
2022-12-31T16:08:28.388Z,127.82
2022-12-31T16:11:18.129Z,123.00
2022-12-31T16:14:03.317Z,131.88
2022-12-31T16:17:01.043Z,150.23
2022-12-31T16:19:50.396Z,166.73
2022-12-31T16:22:46.055Z,154.32
2022-12-31T16:25:31.077Z,138.27
2022-12-31T16:28:33.986Z,126.95
2022-12-31T16:31:24.402Z,106.78
2022-12-31T16:34:14.944Z,106.93
2022-12-31T16:37:06.670Z,116.18
2022-12-31T16:40:05.113Z,111.78
2022-12-31T16:42:47.611Z,102.00
2022-12-31T16:45:44.055Z,125.05
2022-12-31T16:48:28.413Z,108.75
2022-12-31T16:51:26.026Z,112.32
2022-12-31T16:54:13.969Z,95.88
2022-12-31T16:57:00.955Z,98.50
2022-12-31T16:59:47.821Z,101.57
2022-12-31T17:02:53.042Z,89.07
2022-12-31T17:05:37.619Z,80.32
2022-12-31T17:08:54.085Z,77.13
2022-12-31T17:11:47.095Z,72.15
2022-12-31T17:14:39.484Z,70.43
2022-12-31T17:17:38.056Z,70.03
2022-12-31T17:20:33.888Z,61.25
2022-12-31T17:23:37.098Z,52.33
2022-12-31T17:26:21.319Z,59.72
2022-12-31T17:29:12.179Z,58.00
2022-12-31T17:32:14.475Z,58.67
2022-12-31T17:35:03.335Z,64.85
2022-12-31T17:37:45.384Z,63.55
2022-12-31T17:40:51.675Z,61.33
2022-12-31T17:43:35.642Z,64.90
2022-12-31T17:52:16.936Z,69.00
2022-12-31T17:55:06.075Z,64.78
2022-12-31T17:57:59.431Z,79.65
2022-12-31T18:00:47.929Z,71.07
2022-12-31T18:03:30.364Z,75.28
2022-12-31T18:06:19.989Z,78.00
2022-12-31T18:09:09.088Z,75.80
2022-12-31T18:12:01.476Z,74.80
2022-12-31T18:14:51.015Z,89.43
2022-12-31T18:17:34.359Z,71.70
2022-12-31T18:20:24.188Z,87.50
2022-12-31T18:23:12.252Z,77.20
2022-12-31T18:25:54.973Z,82.25
2022-12-31T18:28:43.405Z,86.72
2022-12-31T18:31:32.134Z,89.68
2022-12-31T18:34:16.552Z,85.20
2022-12-31T18:37:04.876Z,88.75
2022-12-31T18:39:53.279Z,100.00
2022-12-31T18:42:35.986Z,91.22
2022-12-31T18:45:27.297Z,95.07
2022-12-31T18:48:09.028Z,100.38
2022-12-31T18:51:04.871Z,88.13
2022-12-31T18:53:53.974Z,98.22
2022-12-31T18:56:47.608Z,88.32
2022-12-31T18:59:42.969Z,91.72
2022-12-31T19:02:31.307Z,88.93
2022-12-31T19:05:29.035Z,94.10
2022-12-31T19:08:11.195Z,92.53
2022-12-31T19:11:00.959Z,89.22
2022-12-31T19:13:49.972Z,95.55
2022-12-31T19:16:32.277Z,101.95
2022-12-31T19:19:20.974Z,101.30
2022-12-31T19:22:03.879Z,109.05
2022-12-31T19:24:53.055Z,120.22
2022-12-31T19:27:35.299Z,112.07
2022-12-31T19:30:34.042Z,104.63
2022-12-31T19:33:16.283Z,109.57
2022-12-31T19:36:05.104Z,108.35
2022-12-31T19:38:47.272Z,102.88
2022-12-31T19:41:35.992Z,118.40
2022-12-31T19:44:26.331Z,109.57
2022-12-31T19:47:15.973Z,122.72
2022-12-31T19:49:58.530Z,118.68
2022-12-31T19:52:46.918Z,116.68
2022-12-31T19:55:36.939Z,118.28
2022-12-31T19:58:31.342Z,116.80
2022-12-31T20:01:14.106Z,121.32
2022-12-31T20:04:02.410Z,112.53
2022-12-31T20:06:44.962Z,113.10
2022-12-31T20:09:33.284Z,112.80
2022-12-31T20:12:15.075Z,120.47
2022-12-31T20:14:57.521Z,114.15
2022-12-31T20:17:46.051Z,119.80
2022-12-31T20:20:35.384Z,117.13
2022-12-31T20:23:17.936Z,119.70
2022-12-31T20:26:01.585Z,122.80
2022-12-31T20:28:50.956Z,110.75
2022-12-31T20:31:39.949Z,117.03
2022-12-31T20:34:22.302Z,112.63
2022-12-31T20:37:11.011Z,116.90
2022-12-31T20:39:59.860Z,105.53
2022-12-31T20:42:49.275Z,119.68
2022-12-31T20:45:33.024Z,121.90
2022-12-31T20:48:15.332Z,128.02
2022-12-31T20:51:12.938Z,117.85
2022-12-31T20:53:58.593Z,118.30
2022-12-31T20:56:50.030Z,125.20
2022-12-31T20:59:38.316Z,117.03
2022-12-31T21:02:34.470Z,116.38
2022-12-31T21:05:30.127Z,112.45
2022-12-31T21:08:12.342Z,119.75
2022-12-31T21:11:00.993Z,106.10
2022-12-31T21:13:49.939Z,103.35
2022-12-31T21:16:39.903Z,103.72
2022-12-31T21:19:28.997Z,116.13
2022-12-31T21:22:18.044Z,102.70
2022-12-31T21:25:02.072Z,108.13
2022-12-31T21:27:50.920Z,106.28
2022-12-31T21:30:33.291Z,97.90
2022-12-31T21:33:21.901Z,104.47
2022-12-31T21:36:05.019Z,101.72
2022-12-31T21:38:53.968Z,100.32
2022-12-31T21:41:54.437Z,111.80
2022-12-31T21:44:42.990Z,97.85
2022-12-31T21:47:47.706Z,109.30
2022-12-31T21:50:43.032Z,110.18
2022-12-31T21:53:39.982Z,111.85
2022-12-31T21:56:29.320Z,112.18
2022-12-31T21:59:29.980Z,113.80
2022-12-31T22:02:37.673Z,105.72
2022-12-31T22:05:24.965Z,110.45
2022-12-31T22:08:13.939Z,108.78
2022-12-31T22:10:56.318Z,106.07
2022-12-31T22:13:45.086Z,97.95
2022-12-31T22:16:28.418Z,104.05
2022-12-31T22:19:16.989Z,100.15
2022-12-31T22:21:59.260Z,108.82
2022-12-31T22:24:47.928Z,111.13
2022-12-31T22:27:36.864Z,110.72
2022-12-31T22:30:26.233Z,113.45
2022-12-31T22:33:08.906Z,115.78
2022-12-31T22:36:09.359Z,108.13
2022-12-31T22:38:51.926Z,109.53
2022-12-31T22:41:42.602Z,112.70
2022-12-31T22:44:25.897Z,98.20
2022-12-31T22:47:15.263Z,114.13
2022-12-31T22:49:56.998Z,109.13
2022-12-31T22:52:45.243Z,102.93
2022-12-31T22:55:26.964Z,114.45
2022-12-31T22:58:15.303Z,100.68
2022-12-31T23:00:57.868Z,103.45
2022-12-31T23:03:46.934Z,106.88
2022-12-31T23:06:31.989Z,96.60
2022-12-31T23:09:32.576Z,110.40
2022-12-31T23:12:21.935Z,106.45
2022-12-31T23:15:22.819Z,112.47
2022-12-31T23:18:29.996Z,109.65
2022-12-31T23:21:36.441Z,110.72
2022-12-31T23:24:26.693Z,112.80
2022-12-31T23:27:09.288Z,114.13
2022-12-31T23:29:57.967Z,109.00
2022-12-31T23:32:40.208Z,114.97
2022-12-31T23:35:28.863Z,111.55
2022-12-31T23:38:17.924Z,111.25
2022-12-31T23:41:06.295Z,108.65
2022-12-31T23:43:48.944Z,118.03
2022-12-31T23:46:31.178Z,121.63
2022-12-31T23:49:19.957Z,119.32
2022-12-31T23:52:08.333Z,114.95
2022-12-31T23:54:49.982Z,119.40
2022-12-31T23:57:32.162Z,116.05
